Time;durP1;ratioP1;P1;durP2;ratioP2;P2;SDS_P1;SDS_P2;PMS_P1;PMS_P2;Temp;Humidity;BMP_temperature;BMP_pressure;BME280_temperature;BME280_humidity;BME280_pressure;Samples;Min_cycle;Max_cycle;Signal;HPM_P1;HPM_P2
2023/04/19 00:00:29;;;;;;;16.60;13.18;;;;;;;;;;5034794;28;20037;-57
2023/04/19 00:02:55;;;;;;;16.08;13.43;;;;;;;;;;5016738;28;20423;-63
2023/04/19 00:05:23;;;;;;;18.02;14.10;;;;;;;;;;5034706;28;20104;-56
2023/04/19 00:07:49;;;;;;;16.58;13.82;;;;;;;;;;5035073;28;20041;-56
2023/04/19 00:10:14;;;;;;;17.63;14.02;;;;;;;;;;5035690;28;20037;-55
2023/04/19 00:12:40;;;;;;;16.90;13.40;;;;;;;;;;5035720;28;20030;-55
2023/04/19 00:15:05;;;;;;;19.48;14.02;;;;;;;;;;5035865;28;20091;-56
2023/04/19 00:17:31;;;;;;;17.65;14.25;;;;;;;;;;5049301;23;20045;-56
2023/04/19 00:19:56;;;;;;;17.17;13.68;;;;;;;;;;5035441;28;20022;-56
2023/04/19 00:22:22;;;;;;;20.20;14.65;;;;;;;;;;5035380;28;20025;-56
2023/04/19 00:24:48;;;;;;;20.13;15.15;;;;;;;;;;5035279;28;20025;-56
2023/04/19 00:27:14;;;;;;;20.23;13.82;;;;;;;;;;5035354;28;20025;-56
2023/04/19 00:29:39;;;;;;;17.40;14.23;;;;;;;;;;5001236;28;20052;-56
2023/04/19 00:32:05;;;;;;;16.00;13.70;;;;;;;;;;5035236;28;20033;-56
2023/04/19 00:34:30;;;;;;;19.67;13.50;;;;;;;;;;5035230;28;20104;-56
2023/04/19 00:36:56;;;;;;;16.27;14.32;;;;;;;;;;5017415;28;20050;-56
2023/04/19 00:39:21;;;;;;;18.35;14.05;;;;;;;;;;5035113;28;20041;-56
2023/04/19 00:41:46;;;;;;;16.60;13.52;;;;;;;;;;5033717;28;20419;-56
2023/04/19 00:44:11;;;;;;;17.90;13.85;;;;;;;;;;5034989;28;20036;-56
2023/04/19 00:46:37;;;;;;;15.82;12.32;;;;;;;;;;5033691;28;20029;-56
2023/04/19 00:49:02;;;;;;;17.58;12.75;;;;;;;;;;5033727;28;20041;-56
2023/04/19 00:51:28;;;;;;;15.40;12.60;;;;;;;;;;5017140;28;20455;-56
2023/04/19 00:53:55;;;;;;;16.70;12.90;;;;;;;;;;5033584;28;20060;-56
2023/04/19 00:56:20;;;;;;;15.32;12.13;;;;;;;;;;5034872;28;20087;-56
2023/04/19 00:58:46;;;;;;;18.83;13.95;;;;;;;;;;5017105;28;20479;-56
2023/04/19 01:01:12;;;;;;;17.75;12.95;;;;;;;;;;5033391;28;20033;-56
2023/04/19 01:03:37;;;;;;;16.67;12.98;;;;;;;;;;5016957;28;20028;-56
2023/04/19 01:06:03;;;;;;;16.55;13.00;;;;;;;;;;5034680;28;20116;-56
2023/04/19 01:08:28;;;;;;;17.80;13.05;;;;;;;;;;5034622;28;20024;-56
2023/04/19 01:10:53;;;;;;;18.30;12.95;;;;;;;;;;5034504;28;20068;-56
2023/04/19 01:13:18;;;;;;;15.00;13.07;;;;;;;;;;5032683;28;20029;-56
2023/04/19 01:15:44;;;;;;;15.23;12.73;;;;;;;;;;5034413;28;20437;-55
2023/04/19 01:18:11;;;;;;;16.95;13.50;;;;;;;;;;5000172;28;20111;-56
2023/04/19 01:20:36;;;;;;;17.83;12.88;;;;;;;;;;5034276;28;20475;-55
2023/04/19 01:23:01;;;;;;;16.63;12.10;;;;;;;;;;5016719;28;20148;-55
2023/04/19 01:25:27;;;;;;;15.50;12.00;;;;;;;;;;5016621;28;20065;-56
2023/04/19 01:27:52;;;;;;;14.88;11.88;;;;;;;;;;5016550;28;20079;-56
2023/04/19 01:30:17;;;;;;;14.18;11.27;;;;;;;;;;5034117;28;20052;-56
2023/04/19 01:32:43;;;;;;;15.90;11.32;;;;;;;;;;5034139;28;20021;-56
2023/04/19 01:35:10;;;;;;;13.95;11.48;;;;;;;;;;5016394;28;20025;-56
2023/04/19 01:37:35;;;;;;;14.00;11.18;;;;;;;;;;5032741;28;20144;-56
2023/04/19 01:40:01;;;;;;;14.32;11.25;;;;;;;;;;5034017;28;20470;-56
2023/04/19 01:42:26;;;;;;;12.35;9.82;;;;;;;;;;5032615;28;20104;-56
2023/04/19 01:44:54;;;;;;;10.27;8.82;;;;;;;;;;5032687;28;20032;-56
2023/04/19 01:47:20;;;;;;;12.65;10.85;;;;;;;;;;5033879;28;20021;-56
2023/04/19 01:49:45;;;;;;;12.18;8.85;;;;;;;;;;5034066;28;20434;-56
2023/04/19 01:52:11;;;;;;;11.85;10.57;;;;;;;;;;5032567;28;20030;-56
2023/04/19 01:54:36;;;;;;;12.50;10.93;;;;;;;;;;5032832;28;20029;-56
2023/04/19 01:57:01;;;;;;;14.20;10.63;;;;;;;;;;5016050;28;20372;-56
2023/04/19 01:59:27;;;;;;;12.98;10.30;;;;;;;;;;5032758;28;20076;-56
2023/04/19 02:01:53;;;;;;;13.50;11.20;;;;;;;;;;5015915;28;20109;-56
2023/04/19 02:04:19;;;;;;;12.85;10.38;;;;;;;;;;5033627;28;20380;-55
2023/04/19 02:06:45;;;;;;;12.07;10.27;;;;;;;;;;5033668;28;20025;-56
2023/04/19 02:09:10;;;;;;;12.05;10.43;;;;;;;;;;5033602;28;20033;-55
2023/04/19 02:11:35;;;;;;;11.43;9.60;;;;;;;;;;5033546;28;20059;-56
2023/04/19 02:14:01;;;;;;;11.98;9.95;;;;;;;;;;5033558;28;20037;-55
2023/04/19 02:16:26;;;;;;;10.68;9.25;;;;;;;;;;5015697;28;20032;-55
2023/04/19 02:18:52;;;;;;;11.57;9.70;;;;;;;;;;5033587;28;20427;-56
2023/04/19 02:21:17;;;;;;;12.70;9.52;;;;;;;;;;5032308;28;20025;-56
2023/04/19 02:23:42;;;;;;;11.05;9.27;;;;;;;;;;5032221;28;20459;-56
2023/04/19 02:26:08;;;;;;;15.05;10.82;;;;;;;;;;5035413;28;20028;-56
2023/04/19 02:28:33;;;;;;;12.40;10.38;;;;;;;;;;5037581;28;20117;-56
2023/04/19 02:31:02;;;;;;;12.95;10.63;;;;;;;;;;5019794;28;20434;-56
2023/04/19 02:33:27;;;;;;;12.55;10.35;;;;;;;;;;5037478;28;20025;-56
2023/04/19 02:35:53;;;;;;;12.05;10.18;;;;;;;;;;5037515;28;20045;-56
2023/04/19 02:38:18;;;;;;;13.63;10.68;;;;;;;;;;5019982;28;20025;-56
2023/04/19 02:40:44;;;;;;;13.32;10.90;;;;;;;;;;5037297;28;20064;-56
2023/04/19 02:43:09;;;;;;;12.25;10.60;;;;;;;;;;5019585;28;20116;-56
2023/04/19 02:45:36;;;;;;;12.75;10.77;;;;;;;;;;5037251;28;20076;-56
2023/04/19 02:48:01;;;;;;;13.60;10.45;;;;;;;;;;5037446;28;20383;-56
2023/04/19 02:50:26;;;;;;;13.10;9.82;;;;;;;;;;5019400;28;20036;-56
2023/04/19 02:52:52;;;;;;;10.82;9.70;;;;;;;;;;5035897;28;20117;-56
2023/04/19 02:55:18;;;;;;;12.93;11.63;;;;;;;;;;5035774;28;20033;-56
2023/04/19 02:57:46;;;;;;;16.58;12.85;;;;;;;;;;5019429;28;20033;-56
2023/04/19 03:00:12;;;;;;;33.13;20.63;;;;;;;;;;5019594;28;20022;-55
2023/04/19 03:02:44;;;;;;;33.42;18.73;;;;;;;;;;5035635;28;20028;-56
2023/04/19 03:05:09;;;;;;;36.78;17.88;;;;;;;;;;5036912;28;20087;-56
2023/04/19 03:07:35;;;;;;;10.65;8.43;;;;;;;;;;5036835;28;20101;-56
2023/04/19 03:10:01;;;;;;;9.73;8.73;;;;;;;;;;5035660;28;20018;-56
2023/04/19 03:12:26;;;;;;;15.13;10.88;;;;;;;;;;5036738;28;20533;-56
2023/04/19 03:14:51;;;;;;;55.92;25.10;;;;;;;;;;5018959;28;20044;-57
2023/04/19 03:17:17;;;;;;;64.65;29.55;;;;;;;;;;5035282;28;20129;-57
2023/04/19 03:19:43;;;;;;;14.73;11.15;;;;;;;;;;5035447;28;20109;-57
2023/04/19 03:22:09;;;;;;;14.27;10.82;;;;;;;;;;5018765;28;20116;-57
2023/04/19 03:24:35;;;;;;;9.93;8.60;;;;;;;;;;5018804;28;20091;-57
2023/04/19 03:27:13;;;;;;;13.98;9.55;;;;;;;;;;5018769;28;20424;-57
2023/04/19 03:29:38;;;;;;;21.92;12.75;;;;;;;;;;5018641;28;20121;-57
2023/04/19 03:32:07;;;;;;;33.10;15.85;;;;;;;;;;5018705;28;20025;-57
2023/04/19 03:34:33;;;;;;;48.80;22.92;;;;;;;;;;5036350;28;20470;-57
2023/04/19 03:36:58;;;;;;;51.22;22.73;;;;;;;;;;5018042;28;20471;-57
2023/04/19 03:39:23;;;;;;;36.08;17.50;;;;;;;;;;5036256;28;20598;-57
2023/04/19 03:41:53;;;;;;;26.58;14.50;;;;;;;;;;5018445;28;20021;-57
2023/04/19 03:44:40;;;;;;;46.83;21.38;;;;;;;;;;5034954;28;20502;-57
2023/04/19 03:47:07;;;;;;;56.75;26.77;;;;;;;;;;5018482;28;20030;-56
2023/04/19 03:49:38;;;;;;;67.18;29.20;;;;;;;;;;5018460;28;20013;-56
2023/04/19 03:52:05;;;;;;;59.45;23.67;;;;;;;;;;5018243;28;20029;-56
2023/04/19 03:54:32;;;;;;;86.45;33.55;;;;;;;;;;5018514;28;20494;-56
2023/04/19 03:56:58;;;;;;;108.88;45.40;;;;;;;;;;5018493;28;20041;-56
2023/04/19 03:59:24;;;;;;;46.78;22.83;;;;;;;;;;5018076;28;20029;-56
2023/04/19 04:01:50;;;;;;;23.10;14.50;;;;;;;;;;5034379;28;20029;-56
2023/04/19 04:04:16;;;;;;;10.57;9.10;;;;;;;;;;5018468;28;20059;-56
2023/04/19 04:06:41;;;;;;;20.95;13.27;;;;;;;;;;5018512;28;20076;-56
2023/04/19 04:09:07;;;;;;;25.15;14.77;;;;;;;;;;5018155;28;20034;-56
2023/04/19 04:11:32;;;;;;;19.98;13.40;;;;;;;;;;5018388;28;20029;-55
2023/04/19 04:13:57;;;;;;;18.67;13.13;;;;;;;;;;5036233;28;20076;-55
2023/04/19 04:16:26;;;;;;;11.27;9.73;;;;;;;;;;5016538;28;20053;-55
2023/04/19 04:18:52;;;;;;;13.93;11.02;;;;;;;;;;5035661;28;20380;-55
2023/04/19 04:21:19;;;;;;;15.52;12.82;;;;;;;;;;5016839;28;20060;-55
2023/04/19 04:23:46;;;;;;;12.00;9.77;;;;;;;;;;5034419;28;20549;-55
2023/04/19 04:26:18;;;;;;;16.85;13.23;;;;;;;;;;5018115;28;20029;-56
2023/04/19 04:29:08;;;;;;;12.60;10.75;;;;;;;;;;5034676;28;20372;-56
2023/04/19 04:31:35;;;;;;;31.17;22.02;;;;;;;;;;5017755;28;20025;-56
2023/04/19 04:34:02;;;;;;;19.63;15.35;;;;;;;;;;5034083;28;20711;-56
2023/04/19 04:36:30;;;;;;;13.85;11.00;;;;;;;;;;5033274;28;20029;-56
2023/04/19 04:38:56;;;;;;;13.23;11.10;;;;;;;;;;5017494;28;20052;-56
2023/04/19 04:41:21;;;;;;;12.13;10.05;;;;;;;;;;5035611;28;20053;-56
2023/04/19 04:43:50;;;;;;;10.88;9.68;;;;;;;;;;5034832;28;20059;-55
2023/04/19 04:46:15;;;;;;;11.10;9.48;;;;;;;;;;5047940;23;20500;-63
2023/04/19 04:48:41;;;;;;;11.10;9.63;;;;;;;;;;5034537;28;20029;-56
2023/04/19 04:51:06;;;;;;;11.93;10.23;;;;;;;;;;5035209;28;20116;-56
2023/04/19 04:53:34;;;;;;;11.68;9.23;;;;;;;;;;5017211;28;20026;-57
2023/04/19 04:56:02;;;;;;;16.42;14.45;;;;;;;;;;5034210;28;20399;-56
2023/04/19 04:58:29;;;;;;;12.45;11.18;;;;;;;;;;5034445;28;20371;-56
2023/04/19 05:01:01;;;;;;;71.10;29.13;;;;;;;;;;5017755;28;20025;-57
2023/04/19 05:03:28;;;;;;;25.05;15.65;;;;;;;;;;5017248;28;20033;-56
2023/04/19 05:05:57;;;;;;;19.55;14.02;;;;;;;;;;5017007;28;20071;-54
2023/04/19 05:08:24;;;;;;;14.90;12.57;;;;;;;;;;5033365;28;20040;-53
2023/04/19 05:10:50;;;;;;;12.27;11.05;;;;;;;;;;5033854;28;20021;-53
2023/04/19 05:13:16;;;;;;;16.92;15.18;;;;;;;;;;5017118;28;20017;-54
2023/04/19 05:15:42;;;;;;;12.93;11.65;;;;;;;;;;5016863;28;20034;-54
2023/04/19 05:18:08;;;;;;;11.52;9.90;;;;;;;;;;5016762;28;20475;-54
2023/04/19 05:20:33;;;;;;;10.95;9.57;;;;;;;;;;5016780;28;20029;-54
2023/04/19 05:23:05;;;;;;;11.35;9.20;;;;;;;;;;5016462;28;20065;-54
2023/04/19 05:25:32;;;;;;;11.02;9.93;;;;;;;;;;5032249;28;20024;-53
2023/04/19 05:27:58;;;;;;;11.00;9.48;;;;;;;;;;5033165;28;20112;-53
2023/04/19 05:30:28;;;;;;;9.50;8.57;;;;;;;;;;5016754;28;20029;-53
2023/04/19 05:32:53;;;;;;;10.68;9.73;;;;;;;;;;5033305;28;20088;-53
2023/04/19 05:35:19;;;;;;;9.85;8.95;;;;;;;;;;5016602;28;20112;-53
2023/04/19 05:37:45;;;;;;;12.18;11.07;;;;;;;;;;5015932;28;20022;-53
2023/04/19 05:40:12;;;;;;;6.75;6.25;;;;;;;;;;5016704;28;20021;-53
2023/04/19 05:42:37;;;;;;;4.75;4.35;;;;;;;;;;5034085;28;20503;-53
2023/04/19 05:45:03;;;;;;;6.53;5.65;;;;;;;;;;5016445;28;20064;-53
2023/04/19 05:47:28;;;;;;;7.70;6.88;;;;;;;;;;5032796;28;20030;-53
2023/04/19 05:50:29;;;;;;;2.80;2.70;;;;;;;;;;5019098;28;20120;-53
2023/04/19 05:53:24;;;;;;;2.50;2.40;;;;;;;;;;5010087;28;20033;-53
2023/04/19 05:55:51;;;;;;;3.20;2.90;;;;;;;;;;5011493;28;20030;-53
2023/04/19 05:58:17;;;;;;;4.43;4.13;;;;;;;;;;5011428;28;20400;-53
2023/04/19 06:00:42;;;;;;;3.00;2.80;;;;;;;;;;5010044;28;20026;-54
2023/04/19 06:03:11;;;;;;;3.53;2.92;;;;;;;;;;5013067;28;20017;-60
2023/04/19 06:05:36;;;;;;;3.33;3.00;;;;;;;;;;5012430;28;20385;-60
2023/04/19 06:08:02;;;;;;;2.72;2.53;;;;;;;;;;5018971;28;20106;-60
2023/04/19 06:10:27;;;;;;;1.65;1.55;;;;;;;;;;5032530;28;20513;-61
2023/04/19 06:12:52;;;;;;;2.47;2.38;;;;;;;;;;5032754;28;20032;-53
2023/04/19 06:15:18;;;;;;;1.30;1.30;;;;;;;;;;5014361;28;20079;-61
2023/04/19 06:17:44;;;;;;;2.60;2.50;;;;;;;;;;5009254;28;20037;-62
2023/04/19 06:20:09;;;;;;;1.67;1.58;;;;;;;;;;5014774;28;20037;-62
2023/04/19 06:22:40;;;;;;;2.22;1.98;;;;;;;;;;5031849;28;20036;-61
2023/04/19 06:25:05;;;;;;;1.73;1.30;;;;;;;;;;5012682;28;20034;-62
2023/04/19 06:27:31;;;;;;;3.40;3.08;;;;;;;;;;5013749;28;20034;-62
2023/04/19 06:29:56;;;;;;;1.25;1.25;;;;;;;;;;4996194;28;20026;-62
2023/04/19 06:32:21;;;;;;;3.30;3.10;;;;;;;;;;5013678;28;20037;-62
2023/04/19 06:34:47;;;;;;;1.50;1.40;;;;;;;;;;5015038;28;20026;-62
2023/04/19 06:37:12;;;;;;;2.15;1.27;;;;;;;;;;5034133;28;20041;-62
2023/04/19 06:39:37;;;;;;;2.25;2.15;;;;;;;;;;5026259;28;20025;-63
2023/04/19 06:42:03;;;;;;;2.60;2.40;;;;;;;;;;5021050;28;20478;-62
2023/04/19 06:44:28;;;;;;;2.83;2.53;;;;;;;;;;5021385;28;20043;-62
2023/04/19 06:46:53;;;;;;;2.30;2.20;;;;;;;;;;5033124;28;20068;-62
2023/04/19 06:49:19;;;;;;;1.75;1.65;;;;;;;;;;5023234;28;20161;-62
2023/04/19 06:51:44;;;;;;;1.85;1.75;;;;;;;;;;5013881;28;20121;-62
2023/04/19 06:54:10;;;;;;;1.95;1.85;;;;;;;;;;5014003;28;20021;-62
2023/04/19 06:56:39;;;;;;;2.05;1.95;;;;;;;;;;5020187;28;20478;-62
2023/04/19 06:59:04;;;;;;;1.55;1.50;;;;;;;;;;5031747;28;20141;-62
2023/04/19 07:01:30;;;;;;;1.63;1.52;;;;;;;;;;5033181;28;20488;-62
2023/04/19 07:03:55;;;;;;;1.83;1.73;;;;;;;;;;5014915;28;20029;-62
2023/04/19 07:06:21;;;;;;;1.77;1.67;;;;;;;;;;5032879;28;20380;-61
2023/04/19 07:08:46;;;;;;;2.08;1.98;;;;;;;;;;5033372;28;20025;-61
2023/04/19 07:11:11;;;;;;;2.28;2.15;;;;;;;;;;5034490;28;20112;-62
2023/04/19 07:13:37;;;;;;;3.40;3.20;;;;;;;;;;5036774;28;20385;-62
2023/04/19 07:16:20;;;;;;;7.50;7.00;;;;;;;;;;5037140;28;20467;-62
2023/04/19 07:18:45;;;;;;;2.97;2.83;;;;;;;;;;5036296;28;20108;-61
2023/04/19 07:21:11;;;;;;;2.28;1.65;;;;;;;;;;5035728;28;20025;-62
2023/04/19 07:23:36;;;;;;;1.20;1.20;;;;;;;;;;5036375;28;20388;-62
2023/04/19 07:26:01;;;;;;;4.15;3.88;;;;;;;;;;5019252;28;20032;-62
2023/04/19 07:28:30;;;;;;;2.22;2.13;;;;;;;;;;5036575;28;20036;-62
2023/04/19 07:30:55;;;;;;;4.60;4.20;;;;;;;;;;5019188;28;20084;-62
2023/04/19 07:33:21;;;;;;;10.60;9.63;;;;;;;;;;5036788;28;20076;-61
2023/04/19 07:35:47;;;;;;;38.38;26.40;;;;;;;;;;5018691;28;20053;-62
2023/04/19 07:38:12;;;;;;;13.48;10.32;;;;;;;;;;5019300;28;20047;-62
2023/04/19 07:40:38;;;;;;;33.05;24.88;;;;;;;;;;5036524;28;20507;-62
2023/04/19 07:43:03;;;;;;;46.13;34.45;;;;;;;;;;5018632;28;20069;-62
2023/04/19 07:45:29;;;;;;;54.95;39.70;;;;;;;;;;5036277;28;20034;-62
2023/04/19 07:47:55;;;;;;;6.80;6.30;;;;;;;;;;5036096;28;20037;-62
2023/04/19 07:50:20;;;;;;;3.38;3.17;;;;;;;;;;5036501;28;20040;-62
2023/04/19 07:52:45;;;;;;;12.50;11.45;;;;;;;;;;5018386;28;20017;-62
2023/04/19 07:55:11;;;;;;;7.53;6.93;;;;;;;;;;5036407;28;20415;-62
2023/04/19 07:57:36;;;;;;;15.18;13.75;;;;;;;;;;5036053;28;20040;-62
2023/04/19 08:00:03;;;;;;;2.85;2.53;;;;;;;;;;5036307;28;20033;-62
2023/04/19 08:02:43;;;;;;;12.80;11.48;;;;;;;;;;5035911;28;20446;-61
2023/04/19 08:05:09;;;;;;;7.47;6.78;;;;;;;;;;5018071;28;20523;-62
2023/04/19 08:07:34;;;;;;;8.40;7.57;;;;;;;;;;5035854;28;20021;-62
2023/04/19 08:09:59;;;;;;;6.25;5.65;;;;;;;;;;5035854;28;20037;-62
2023/04/19 08:12:25;;;;;;;4.22;3.42;;;;;;;;;;5035785;28;20447;-61
2023/04/19 08:14:50;;;;;;;6.50;5.03;;;;;;;;;;5036053;28;20072;-62
2023/04/19 08:17:19;;;;;;;4.18;3.33;;;;;;;;;;5018226;28;20033;-62
2023/04/19 08:19:44;;;;;;;6.65;4.65;;;;;;;;;;5035652;28;20029;-62
2023/04/19 08:22:10;;;;;;;7.47;5.35;;;;;;;;;;5035830;28;20025;-61
2023/04/19 08:24:35;;;;;;;5.43;4.63;;;;;;;;;;5035821;28;20053;-61
2023/04/19 08:27:00;;;;;;;6.47;4.80;;;;;;;;;;5035503;28;20029;-62
2023/04/19 08:29:26;;;;;;;6.85;6.10;;;;;;;;;;5035735;28;20038;-62
2023/04/19 08:31:51;;;;;;;6.03;4.60;;;;;;;;;;5035694;28;20029;-62
2023/04/19 08:34:16;;;;;;;12.65;9.13;;;;;;;;;;5035339;28;20025;-62
2023/04/19 08:36:42;;;;;;;3.13;2.72;;;;;;;;;;5035617;28;20022;-61
2023/04/19 08:39:07;;;;;;;3.35;2.60;;;;;;;;;;5035533;28;20099;-62
2023/04/19 08:41:33;;;;;;;4.60;4.20;;;;;;;;;;5035436;28;20037;-61
2023/04/19 08:44:00;;;;;;;15.68;10.15;;;;;;;;;;5035186;28;20028;-62
2023/04/19 08:46:25;;;;;;;5.07;3.25;;;;;;;;;;5034944;28;20049;-61
2023/04/19 08:48:51;;;;;;;2.47;2.28;;;;;;;;;;5035375;28;20030;-61
2023/04/19 08:51:17;;;;;;;7.75;6.05;;;;;;;;;;5035285;28;20044;-62
2023/04/19 08:53:43;;;;;;;2.83;2.67;;;;;;;;;;5017851;28;20036;-61
2023/04/19 08:56:09;;;;;;;12.93;9.52;;;;;;;;;;5035490;28;20033;-61
2023/04/19 08:58:35;;;;;;;7.57;6.18;;;;;;;;;;5034897;28;20484;-62
2023/04/19 09:01:01;;;;;;;16.45;11.25;;;;;;;;;;5035045;28;20033;-62
2023/04/19 09:03:26;;;;;;;6.70;6.10;;;;;;;;;;5034790;28;20072;-61
2023/04/19 09:05:52;;;;;;;2.85;2.47;;;;;;;;;;5034748;28;20538;-62
2023/04/19 09:08:22;;;;;;;3.42;3.13;;;;;;;;;;5034714;28;20033;-62
2023/04/19 09:10:54;;;;;;;8.23;5.75;;;;;;;;;;5035208;28;20475;-62
2023/04/19 09:13:20;;;;;;;8.18;6.63;;;;;;;;;;5034903;28;20036;-62
2023/04/19 09:15:45;;;;;;;4.88;3.95;;;;;;;;;;5034571;28;20026;-61
2023/04/19 09:18:11;;;;;;;2.42;2.33;;;;;;;;;;5034802;28;20387;-54
2023/04/19 09:20:38;;;;;;;3.65;3.45;;;;;;;;;;5034736;28;20039;-62
2023/04/19 09:23:05;;;;;;;2.50;2.30;;;;;;;;;;5034437;28;20033;-62
2023/04/19 09:25:30;;;;;;;2.17;1.98;;;;;;;;;;5017122;28;20030;-61
2023/04/19 09:28:16;;;;;;;1.60;1.50;;;;;;;;;;5034631;28;20025;-62
2023/04/19 09:30:41;;;;;;;32.85;21.27;;;;;;;;;;5033991;28;20038;-62
2023/04/19 09:33:07;;;;;;;41.03;24.77;;;;;;;;;;5016226;28;20083;-61
2023/04/19 09:35:40;;;;;;;39.20;25.42;;;;;;;;;;5034323;28;20029;-61
2023/04/19 09:38:05;;;;;;;20.15;15.38;;;;;;;;;;5034423;28;20471;-62
2023/04/19 09:40:31;;;;;;;16.30;13.32;;;;;;;;;;5034145;28;20064;-61
2023/04/19 09:42:56;;;;;;;6.97;6.25;;;;;;;;;;5034088;28;20079;-61
2023/04/19 09:45:21;;;;;;;4.25;2.97;;;;;;;;;;5034329;28;20482;-62
2023/04/19 09:47:59;;;;;;;2.38;2.28;;;;;;;;;;5033914;28;20037;-62
2023/04/19 09:50:24;;;;;;;3.35;3.05;;;;;;;;;;5034019;28;20029;-62
2023/04/19 09:52:51;;;;;;;3.58;3.33;;;;;;;;;;5034237;28;20033;-61
2023/04/19 09:55:18;;;;;;;3.67;2.97;;;;;;;;;;5016301;28;20025;-61
2023/04/19 09:57:43;;;;;;;4.55;4.15;;;;;;;;;;5016590;28;20029;-61
2023/04/19 10:00:12;;;;;;;2.92;2.72;;;;;;;;;;5033875;28;20033;-61
2023/04/19 10:02:39;;;;;;;2.60;2.50;;;;;;;;;;5033782;28;20040;-62
2023/04/19 10:05:05;;;;;;;2.25;2.15;;;;;;;;;;5034065;28;20408;-62
2023/04/19 10:07:31;;;;;;;2.30;2.20;;;;;;;;;;5034308;28;20036;-62
2023/04/19 10:09:57;;;;;;;2.13;2.00;;;;;;;;;;5033737;28;20100;-62
2023/04/19 10:12:23;;;;;;;6.57;5.97;;;;;;;;;;5034005;28;20052;-62
2023/04/19 10:14:49;;;;;;;4.30;3.65;;;;;;;;;;5033700;28;20456;-61
2023/04/19 10:17:16;;;;;;;2.08;1.98;;;;;;;;;;5015926;28;20439;-61
2023/04/19 10:19:43;;;;;;;2.70;2.50;;;;;;;;;;5033918;28;20029;-62
2023/04/19 10:22:08;;;;;;;2.45;2.33;;;;;;;;;;5033823;28;20387;-61
2023/04/19 10:24:33;;;;;;;3.05;2.78;;;;;;;;;;5033546;28;20024;-62
2023/04/19 10:29:55;;;;;;;7.45;6.13;;;;;;;;;;5039292;23;20072;-54
2023/04/19 10:32:21;;;;;;;4.75;4.30;;;;;;;;;;5047627;23;20053;-54
2023/04/19 10:34:46;;;;;;;3.67;3.47;;;;;;;;;;5060933;23;20075;-62
2023/04/19 10:37:15;;;;;;;4.82;4.30;;;;;;;;;;5061937;23;20079;-53
2023/04/19 10:39:41;;;;;;;6.95;6.32;;;;;;;;;;5047603;23;20096;-62
2023/04/19 10:42:07;;;;;;;5.07;4.10;;;;;;;;;;5061951;23;20054;-54
2023/04/19 10:44:32;;;;;;;4.97;4.57;;;;;;;;;;5053256;28;20021;-53
2023/04/19 10:46:57;;;;;;;5.13;4.63;;;;;;;;;;5056098;28;20033;-53
2023/04/19 10:49:23;;;;;;;7.90;7.15;;;;;;;;;;5057271;28;20029;-54
2023/04/19 10:51:51;;;;;;;7.45;6.70;;;;;;;;;;5057506;28;20126;-53
2023/04/19 10:54:33;;;;;;;9.82;7.05;;;;;;;;;;5057183;28;20028;-53
2023/04/19 10:56:58;;;;;;;14.20;11.80;;;;;;;;;;5057155;28;20101;-54
2023/04/19 10:59:24;;;;;;;9.48;8.48;;;;;;;;;;5057078;28;20360;-53
2023/04/19 11:01:54;;;;;;;7.25;6.53;;;;;;;;;;5057543;28;20029;-53
2023/04/19 11:04:39;;;;;;;6.63;6.03;;;;;;;;;;5057030;28;20037;-53
2023/04/19 11:07:06;;;;;;;5.30;4.80;;;;;;;;;;5039886;28;20041;-62
2023/04/19 11:09:34;;;;;;;4.60;4.20;;;;;;;;;;5057190;28;20044;-61
2023/04/19 11:12:06;;;;;;;5.82;5.32;;;;;;;;;;5057409;28;20360;-62
2023/04/19 11:14:36;;;;;;;6.55;5.95;;;;;;;;;;5056698;28;20029;-61
2023/04/19 11:17:02;;;;;;;7.53;6.80;;;;;;;;;;5056741;28;20039;-62
2023/04/19 11:19:27;;;;;;;7.72;6.90;;;;;;;;;;5056732;28;20033;-61
2023/04/19 11:21:56;;;;;;;7.88;7.07;;;;;;;;;;5056580;28;20143;-61
2023/04/19 11:24:21;;;;;;;14.32;11.05;;;;;;;;;;5055878;28;20104;-61
2023/04/19 11:26:50;;;;;;;109.25;59.53;;;;;;;;;;5056598;28;20103;-61
2023/04/19 11:29:15;;;;;;;41.45;25.42;;;;;;;;;;5056809;28;20036;-61
2023/04/19 11:31:45;;;;;;;43.88;30.73;;;;;;;;;;5056780;28;20029;-61
2023/04/19 11:34:10;;;;;;;14.55;10.50;;;;;;;;;;5056495;28;20033;-62
2023/04/19 11:36:45;;;;;;;11.82;10.23;;;;;;;;;;5056724;28;20539;-62
2023/04/19 11:39:11;;;;;;;12.18;10.10;;;;;;;;;;5056383;28;20028;-61
2023/04/19 11:41:39;;;;;;;8.02;7.18;;;;;;;;;;5056244;28;20533;-61
2023/04/19 11:44:19;;;;;;;17.85;14.70;;;;;;;;;;5056107;28;20049;-61
2023/04/19 11:47:02;;;;;;;16.97;14.57;;;;;;;;;;5056515;28;20025;-61
2023/04/19 11:49:29;;;;;;;13.80;10.85;;;;;;;;;;5056474;28;20501;-61
2023/04/19 11:51:58;;;;;;;14.43;12.43;;;;;;;;;;5056366;28;20122;-61
2023/04/19 11:54:24;;;;;;;42.08;23.15;;;;;;;;;;5056299;28;20073;-61
2023/04/19 11:56:59;;;;;;;30.00;16.90;;;;;;;;;;5056209;28;20047;-61
2023/04/19 11:59:24;;;;;;;38.75;19.92;;;;;;;;;;5056275;28;20029;-61
2023/04/19 12:01:50;;;;;;;25.67;15.23;;;;;;;;;;5056129;28;20525;-61
2023/04/19 12:04:15;;;;;;;27.70;14.65;;;;;;;;;;5055890;28;20025;-62
2023/04/19 12:06:40;;;;;;;22.58;14.77;;;;;;;;;;5055849;28;20051;-61
2023/04/19 12:09:08;;;;;;;29.88;17.60;;;;;;;;;;5056102;28;20040;-61
2023/04/19 12:11:51;;;;;;;13.57;10.77;;;;;;;;;;5055690;28;20383;-61
2023/04/19 12:14:20;;;;;;;13.75;10.65;;;;;;;;;;5054475;28;20079;-61
2023/04/19 12:16:45;;;;;;;9.60;8.23;;;;;;;;;;5055926;28;20474;-61
2023/04/19 12:19:13;;;;;;;93.47;43.25;;;;;;;;;;5055579;28;20029;-61
2023/04/19 12:21:38;;;;;;;16.95;12.20;;;;;;;;;;5056072;28;20083;-61
2023/04/19 12:24:04;;;;;;;11.65;9.43;;;;;;;;;;5055780;28;20025;-61
2023/04/19 12:26:30;;;;;;;44.05;22.60;;;;;;;;;;5055490;28;20112;-61
2023/04/19 12:28:56;;;;;;;17.23;11.30;;;;;;;;;;5055716;28;20443;-61
2023/04/19 12:31:21;;;;;;;74.55;33.20;;;;;;;;;;5055358;28;20033;-61
2023/04/19 12:33:47;;;;;;;25.88;14.48;;;;;;;;;;5056161;28;20108;-61
2023/04/19 12:36:12;;;;;;;9.95;7.80;;;;;;;;;;5055555;28;20101;-61
2023/04/19 12:38:38;;;;;;;8.30;7.50;;;;;;;;;;5055526;28;20032;-61
2023/04/19 12:41:04;;;;;;;50.40;27.17;;;;;;;;;;5055391;28;20037;-61
2023/04/19 12:43:30;;;;;;;25.17;16.73;;;;;;;;;;5055075;28;20056;-61
2023/04/19 12:46:00;;;;;;;33.97;18.80;;;;;;;;;;5055860;28;20064;-61
2023/04/19 12:48:25;;;;;;;26.38;14.38;;;;;;;;;;5055324;28;20108;-61
2023/04/19 12:50:51;;;;;;;7.32;6.63;;;;;;;;;;5055300;28;20067;-61
2023/04/19 12:53:16;;;;;;;14.52;10.98;;;;;;;;;;5055249;28;20029;-61
2023/04/19 12:55:46;;;;;;;59.00;26.60;;;;;;;;;;5055412;28;20036;-61
2023/04/19 12:58:12;;;;;;;13.77;10.45;;;;;;;;;;5054868;28;20091;-61
2023/04/19 13:00:37;;;;;;;31.55;16.88;;;;;;;;;;5055103;28;20028;-61
2023/04/19 13:03:03;;;;;;;47.03;26.55;;;;;;;;;;5054695;28;20478;-61
2023/04/19 13:05:28;;;;;;;16.30;11.73;;;;;;;;;;5054968;28;20032;-61
2023/04/19 13:07:53;;;;;;;14.38;10.65;;;;;;;;;;5054597;28;20123;-61
2023/04/19 13:10:19;;;;;;;22.10;14.63;;;;;;;;;;5054362;28;20032;-61
2023/04/19 13:12:45;;;;;;;10.98;8.63;;;;;;;;;;5054557;28;20116;-61
2023/04/19 13:15:10;;;;;;;39.83;30.58;;;;;;;;;;5054750;28;20103;-61
2023/04/19 13:17:36;;;;;;;13.63;9.82;;;;;;;;;;5054628;28;20029;-61
2023/04/19 13:20:02;;;;;;;15.32;11.45;;;;;;;;;;5054988;28;20464;-61
2023/04/19 13:22:27;;;;;;;10.35;9.23;;;;;;;;;;5054358;28;20043;-61
2023/04/19 13:24:52;;;;;;;11.70;9.27;;;;;;;;;;5037621;28;20021;-61
2023/04/19 13:27:18;;;;;;;14.05;9.23;;;;;;;;;;5054179;28;20091;-61
2023/04/19 13:29:43;;;;;;;18.98;10.98;;;;;;;;;;5054515;28;20463;-61
2023/04/19 13:32:11;;;;;;;13.13;9.73;;;;;;;;;;5052975;28;20067;-61
2023/04/19 13:34:37;;;;;;;10.85;8.35;;;;;;;;;;5053087;28;20045;-61
2023/04/19 13:37:02;;;;;;;14.70;9.23;;;;;;;;;;5053177;28;20039;-61
2023/04/19 13:39:28;;;;;;;10.50;7.50;;;;;;;;;;5053043;28;20097;-61
2023/04/19 13:41:53;;;;;;;11.10;8.80;;;;;;;;;;5051384;28;20033;-61
2023/04/19 13:44:18;;;;;;;9.23;8.07;;;;;;;;;;5053259;28;20033;-61
2023/04/19 13:46:44;;;;;;;12.77;8.43;;;;;;;;;;5051902;28;20223;-61
2023/04/19 13:49:09;;;;;;;10.57;9.32;;;;;;;;;;5052990;28;20040;-61
2023/04/19 13:51:34;;;;;;;9.68;8.57;;;;;;;;;;5053047;28;20036;-61
2023/04/19 13:54:00;;;;;;;13.43;10.70;;;;;;;;;;5053525;28;20102;-61
2023/04/19 13:56:57;;;;;;;18.08;13.45;;;;;;;;;;5052826;28;20041;-61
2023/04/19 13:59:24;;;;;;;109.43;51.15;;;;;;;;;;5054148;28;20120;-61
2023/04/19 14:01:50;;;;;;;86.57;37.08;;;;;;;;;;5053864;28;20040;-61
2023/04/19 14:04:15;;;;;;;51.10;26.52;;;;;;;;;;5054028;28;20033;-61
2023/04/19 14:06:41;;;;;;;49.85;29.55;;;;;;;;;;5053698;28;20029;-61
2023/04/19 14:09:06;;;;;;;31.65;20.95;;;;;;;;;;5053342;28;20077;-61
2023/04/19 14:11:32;;;;;;;23.65;16.40;;;;;;;;;;5052639;28;20507;-61
2023/04/19 14:13:57;;;;;;;19.58;14.13;;;;;;;;;;5052911;28;20031;-61
2023/04/19 14:16:24;;;;;;;26.58;15.40;;;;;;;;;;5052724;28;20029;-61
2023/04/19 14:18:49;;;;;;;29.10;23.45;;;;;;;;;;5052324;28;20021;-61
2023/04/19 14:21:15;;;;;;;24.17;14.57;;;;;;;;;;5052134;28;20514;-61
2023/04/19 14:23:40;;;;;;;19.30;12.48;;;;;;;;;;5052271;28;20025;-61
2023/04/19 14:26:05;;;;;;;14.68;10.50;;;;;;;;;;5052854;28;20013;-61
2023/04/19 14:28:30;;;;;;;9.95;7.85;;;;;;;;;;5053750;28;20028;-61